• Join FlightAware (Why Join?)
  • Login
  • US Flag 
Gobble Gobble! 
11:41PM EST


 

Airport Tracker/Info


-or-


 

Live Flight TrackerFlight Track Log ✈ AWI3778 ✈ 08-Aug-2013 ✈ KPHL - KBTV

Flight Track Log - Related Links

Times and Time Zones

All times are in EDT time to prevent confusion due to time zone crossing. See the AWI3778 flight status page for this flight to view local times or setup timezone preferences in your user account.

Time Position Orientation Groundspeed Altitude Reporting Facility
EDT Latitude Longitude Course Direction KTS MPH feet Rate Location/Type
12:50PM 39.8667 -75.2833 37° Northeast 144 166 700  Level Philadelphia TRACON
12:51PM 39.8333 -75.3167 218° Southwest 183 211 2,500 2,160 Climbing Philadelphia TRACON
12:52PM 39.7833 -75.3333 194° South 227 261 5,100 2,220 Climbing Philadelphia TRACON
12:53PM 39.8060 -74.8134 105° East  Level FlightAware Approximate
12:53PM 39.7742 -75.1925 95° East 273 314 8,200  Level New York Center
12:54PM 39.7848 -74.7072 105° East  Level FlightAware Approximate
12:54PM 39.7761 -75.0844 89° East 285 328 10,200  Level New York Center
12:55PM 39.8457 -74.6377 37° Northeast  Level FlightAware Approximate
12:55PM 39.7808 -74.9578 87° East 324 373 11,300  Level New York Center
12:56PM 39.7875 -74.8258 86° East 347 399 12,000 1,200 Climbing New York Center
12:57PM 39.8147 -74.6978 74° East 360 414 13,700 1,500 Climbing New York Center
12:58PM 39.8967 -74.6156 38° Northeast 345 397 15,000 1,260 Climbing New York Center
12:59PM 39.9808 -74.5308 38° Northeast 352 405 16,200 1,140 Climbing New York Center
01:00PM 40.0667 -74.4489 36° Northeast 368 423 17,300 1,080 Climbing New York Center
01:01PM 40.1464 -74.3689 37° Northeast 396 456 18,400 960 Climbing New York Center
01:02PM 40.2408 -74.2731 38° Northeast 396 456 19,300 1,500 Climbing New York Center
01:03PM 40.3267 -74.1878 37° Northeast 401 461 21,400 1,980 Climbing New York Center
01:04PM 40.4081 -74.1100 36° Northeast 386 444 23,200 1,260 Climbing New York Center
01:05PM 40.4989 -74.0706 18° North 335 386 24,000 480 Climbing New York Center
01:08PM 40.7556 -74.0019 11° North 374 430 25,000 240 Climbing Boston Center
01:09PM 40.8667 -73.9717 12° North 387 445 25,000  Level Boston Center
01:10PM 40.9692 -73.9383 14° North 401 461 25,000  Level Boston Center
01:11PM 41.0842 -73.9050 12° North 413 475 25,000  Level Boston Center
01:12PM 41.1992 -73.8747 11° North 418 481 25,000  Level Boston Center
01:13PM 41.3122 -73.8411 13° North 412 474 25,000  Level Boston Center
01:14PM 41.4272 -73.8106 11° North 412 474 25,000  Level Boston Center
01:15PM 41.5381 -73.7742 14° North 412 474 25,000  Level Boston Center
01:16PM 41.6489 -73.7458 11° North 412 474 25,000 -540 Level Boston Center
01:17PM 41.7575 -73.7119 13° North 406 467 24,000 -540 Descending Boston Center
01:18PM 41.8767 -73.6892 North 401 461 24,000  Level Boston Center
01:19PM 41.9958 -73.6636 North 407 468 24,000  Level Boston Center
01:20PM 42.1064 -73.6406 North 433 498 24,000  Level Boston Center
01:21PM 42.2275 -73.6206 North 439 505 24,000 -180 Level Boston Center
01:22PM 42.3611 -73.5919 North 439 505 23,700 -540 Descending Boston Center
01:23PM 42.4864 -73.5692 North 445 512 23,000 -360 Descending Boston Center
01:24PM 42.6075 -73.5431 North 445 512 23,000  Level Boston Center
01:25PM 42.7308 -73.5197 North 445 512 23,000  Level Boston Center
01:26PM 42.8289 -73.5017 North 445 512 23,000  Level Boston Center
01:27PM 42.9522 -73.4697 11° North 424 488 23,000  Level Boston Center
01:28PM 43.0711 -73.4492 North 424 488 23,000  Level Boston Center
01:29PM 43.1964 -73.4225 North 424 488 23,000  Level Boston Center
01:30PM 43.3114 -73.4017 North 424 488 23,000  Level Boston Center
01:31PM 43.4261 -73.3778 North 419 482 23,000 -660 Level Boston Center
01:32PM 43.5431 -73.3539 North 419 482 21,800 -1,620 Descending Boston Center
01:33PM 43.6597 -73.3297 North 419 482 19,800 -2,040 Descending Boston Center
01:34PM 43.7767 -73.3028 North 425 489 17,700 -2,160 Descending Boston Center
01:35PM 43.8917 -73.2783 North 425 489 15,500 -2,160 Descending Boston Center
01:36PM 43.9981 -73.2539 North 401 461 13,400 -2,100 Descending Boston Center
01:37PM 44.0939 -73.2350 North 377 434 11,400 -1,860 Descending Boston Center
01:38PM 44.1836 -73.2333 North 336 387 9,800 -1,680 Descending Boston Center
01:39PM 44.2606 -73.2547 349° North 294 338 8,100 -1,920 Descending Boston Center
01:40PM 44.3353 -73.2758 349° North 276 318 6,000 -2,160 Descending Boston Center
01:41PM 44.4058 -73.3178 337° Northwest 276 318 3,800 -1,740 Descending Boston Center
01:42PM 44.4686 -73.2983 12° North 237 273 2,600 -1,260 Descending Boston Center
01:43PM 44.5022 -73.2406 51° Northeast 188 216 1,400 -900 Descending Boston Center
01:44PM 44.4944 -73.1850 101° East 142 163 800 -600 Descending Boston Center
01:45PM 44.4781 -73.1411 118° Southeast 136 157 300 -300 Descending Boston Center
01:46PM 44.4694 -73.1558 231° Southwest 78 90 300 11,220 Level Boston Center
01:47PM 44.4553 -73.1147 116° Southeast 78 90 23,000 10,260 Climbing Boston Center
01:48PM 44.4428 -73.0797 117° Southeast 78 90 23,000  Level Boston Center